sensor_id;sensor_type;location;lat;lon;timestamp;P1;durP1;ratioP1;P2;durP2;ratioP2
15899;SDS011;8048;50.644;6.184;2023-04-03T00:00:52;3.57;;;3.40;;
15899;SDS011;8048;50.644;6.184;2023-04-03T00:03:18;4.90;;;4.60;;
15899;SDS011;8048;50.644;6.184;2023-04-03T00:05:44;6.03;;;4.07;;
15899;SDS011;8048;50.644;6.184;2023-04-03T00:08:11;2.63;;;2.53;;
15899;SDS011;8048;50.644;6.184;2023-04-03T00:10:37;4.47;;;4.00;;
15899;SDS011;8048;50.644;6.184;2023-04-03T00:13:03;5.40;;;4.90;;
15899;SDS011;8048;50.644;6.184;2023-04-03T00:15:30;8.47;;;6.70;;
15899;SDS011;8048;50.644;6.184;2023-04-03T00:17:55;12.83;;;8.67;;
15899;SDS011;8048;50.644;6.184;2023-04-03T00:20:21;9.40;;;7.60;;
15899;SDS011;8048;50.644;6.184;2023-04-03T00:22:47;9.90;;;5.70;;
15899;SDS011;8048;50.644;6.184;2023-04-03T00:25:13;3.70;;;3.40;;
15899;SDS011;8048;50.644;6.184;2023-04-03T00:27:39;3.10;;;2.90;;
15899;SDS011;8048;50.644;6.184;2023-04-03T00:30:06;4.77;;;3.00;;
15899;SDS011;8048;50.644;6.184;2023-04-03T00:32:33;2.87;;;2.77;;
15899;SDS011;8048;50.644;6.184;2023-04-03T00:34:59;3.33;;;3.03;;
15899;SDS011;8048;50.644;6.184;2023-04-03T00:37:25;2.10;;;2.00;;
15899;SDS011;8048;50.644;6.184;2023-04-03T00:39:50;2.90;;;2.80;;
15899;SDS011;8048;50.644;6.184;2023-04-03T00:42:16;2.50;;;2.40;;
15899;SDS011;8048;50.644;6.184;2023-04-03T00:47:08;2.77;;;2.57;;
15899;SDS011;8048;50.644;6.184;2023-04-03T00:49:37;4.67;;;4.37;;
15899;SDS011;8048;50.644;6.184;2023-04-03T00:52:04;4.50;;;4.20;;
15899;SDS011;8048;50.644;6.184;2023-04-03T00:54:32;4.00;;;3.80;;
15899;SDS011;8048;50.644;6.184;2023-04-03T00:56:59;3.37;;;3.17;;
15899;SDS011;8048;50.644;6.184;2023-04-03T00:59:27;8.17;;;3.90;;
15899;SDS011;8048;50.644;6.184;2023-04-03T01:01:59;3.27;;;3.07;;
15899;SDS011;8048;50.644;6.184;2023-04-03T01:04:36;2.63;;;2.40;;
15899;SDS011;8048;50.644;6.184;2023-04-03T01:07:05;3.37;;;2.70;;
15899;SDS011;8048;50.644;6.184;2023-04-03T01:09:33;4.10;;;3.80;;
15899;SDS011;8048;50.644;6.184;2023-04-03T01:12:17;3.03;;;2.80;;
15899;SDS011;8048;50.644;6.184;2023-04-03T01:14:45;3.00;;;2.30;;
15899;SDS011;8048;50.644;6.184;2023-04-03T01:17:25;2.40;;;2.30;;
15899;SDS011;8048;50.644;6.184;2023-04-03T01:20:40;2.83;;;2.63;;
15899;SDS011;8048;50.644;6.184;2023-04-03T01:25:34;3.53;;;3.23;;
15899;SDS011;8048;50.644;6.184;2023-04-03T01:28:03;6.10;;;5.50;;
15899;SDS011;8048;50.644;6.184;2023-04-03T01:30:32;5.37;;;4.87;;
15899;SDS011;8048;50.644;6.184;2023-04-03T01:33:00;4.73;;;4.37;;
15899;SDS011;8048;50.644;6.184;2023-04-03T01:35:26;6.40;;;5.60;;
15899;SDS011;8048;50.644;6.184;2023-04-03T01:37:52;9.07;;;7.50;;
15899;SDS011;8048;50.644;6.184;2023-04-03T01:40:17;7.90;;;7.10;;
15899;SDS011;8048;50.644;6.184;2023-04-03T01:42:43;9.30;;;6.60;;
15899;SDS011;8048;50.644;6.184;2023-04-03T01:45:08;8.20;;;7.40;;
15899;SDS011;8048;50.644;6.184;2023-04-03T01:47:34;8.67;;;7.27;;
15899;SDS011;8048;50.644;6.184;2023-04-03T01:50:00;10.97;;;7.87;;
15899;SDS011;8048;50.644;6.184;2023-04-03T01:52:26;5.80;;;5.30;;
15899;SDS011;8048;50.644;6.184;2023-04-03T01:54:51;5.70;;;5.17;;
15899;SDS011;8048;50.644;6.184;2023-04-03T01:57:17;6.33;;;5.30;;
15899;SDS011;8048;50.644;6.184;2023-04-03T01:59:42;5.30;;;4.87;;
15899;SDS011;8048;50.644;6.184;2023-04-03T02:02:08;6.20;;;4.67;;
15899;SDS011;8048;50.644;6.184;2023-04-03T02:04:33;4.07;;;3.07;;
15899;SDS011;8048;50.644;6.184;2023-04-03T02:06:59;4.40;;;4.10;;
15899;SDS011;8048;50.644;6.184;2023-04-03T02:09:25;4.33;;;4.03;;
15899;SDS011;8048;50.644;6.184;2023-04-03T02:11:51;3.50;;;3.20;;
15899;SDS011;8048;50.644;6.184;2023-04-03T02:14:17;4.93;;;4.50;;
15899;SDS011;8048;50.644;6.184;2023-04-03T02:16:43;6.37;;;5.20;;
15899;SDS011;8048;50.644;6.184;2023-04-03T02:19:08;8.50;;;5.57;;
15899;SDS011;8048;50.644;6.184;2023-04-03T02:21:34;4.80;;;3.50;;
15899;SDS011;8048;50.644;6.184;2023-04-03T02:23:59;4.23;;;3.93;;
15899;SDS011;8048;50.644;6.184;2023-04-03T02:26:25;6.37;;;4.00;;
15899;SDS011;8048;50.644;6.184;2023-04-03T02:28:51;6.73;;;5.20;;
15899;SDS011;8048;50.644;6.184;2023-04-03T02:31:17;6.10;;;5.50;;
15899;SDS011;8048;50.644;6.184;2023-04-03T02:33:42;9.77;;;7.43;;
15899;SDS011;8048;50.644;6.184;2023-04-03T02:36:08;7.03;;;5.67;;
15899;SDS011;8048;50.644;6.184;2023-04-03T02:38:34;6.17;;;5.57;;
15899;SDS011;8048;50.644;6.184;2023-04-03T02:41:00;4.17;;;3.60;;
15899;SDS011;8048;50.644;6.184;2023-04-03T02:43:27;4.37;;;4.07;;
15899;SDS011;8048;50.644;6.184;2023-04-03T02:45:52;7.00;;;4.03;;
15899;SDS011;8048;50.644;6.184;2023-04-03T02:48:18;5.83;;;5.27;;
15899;SDS011;8048;50.644;6.184;2023-04-03T02:50:43;6.77;;;6.17;;
15899;SDS011;8048;50.644;6.184;2023-04-03T02:53:09;11.20;;;8.50;;
15899;SDS011;8048;50.644;6.184;2023-04-03T02:55:35;11.00;;;8.00;;
15899;SDS011;8048;50.644;6.184;2023-04-03T02:58:00;10.40;;;8.33;;
15899;SDS011;8048;50.644;6.184;2023-04-03T03:00:26;11.37;;;9.07;;
15899;SDS011;8048;50.644;6.184;2023-04-03T03:02:52;8.60;;;7.50;;
15899;SDS011;8048;50.644;6.184;2023-04-03T03:05:17;8.73;;;5.83;;
15899;SDS011;8048;50.644;6.184;2023-04-03T03:07:43;6.40;;;5.57;;
15899;SDS011;8048;50.644;6.184;2023-04-03T03:10:08;7.93;;;7.23;;
15899;SDS011;8048;50.644;6.184;2023-04-03T03:12:34;6.27;;;5.67;;
15899;SDS011;8048;50.644;6.184;2023-04-03T03:15:00;4.43;;;4.00;;
15899;SDS011;8048;50.644;6.184;2023-04-03T03:17:25;5.77;;;4.53;;
15899;SDS011;8048;50.644;6.184;2023-04-03T03:19:51;5.97;;;5.40;;
15899;SDS011;8048;50.644;6.184;2023-04-03T03:22:16;5.17;;;4.77;;
15899;SDS011;8048;50.644;6.184;2023-04-03T03:24:42;5.53;;;5.03;;
15899;SDS011;8048;50.644;6.184;2023-04-03T03:27:07;4.57;;;4.17;;
15899;SDS011;8048;50.644;6.184;2023-04-03T03:29:33;5.43;;;4.93;;
15899;SDS011;8048;50.644;6.184;2023-04-03T03:31:59;6.80;;;3.97;;
15899;SDS011;8048;50.644;6.184;2023-04-03T03:34:24;4.53;;;4.23;;
15899;SDS011;8048;50.644;6.184;2023-04-03T03:36:50;4.57;;;4.17;;
15899;SDS011;8048;50.644;6.184;2023-04-03T03:39:15;5.93;;;4.40;;
15899;SDS011;8048;50.644;6.184;2023-04-03T03:41:41;4.27;;;3.90;;
15899;SDS011;8048;50.644;6.184;2023-04-03T03:44:07;11.80;;;4.93;;
15899;SDS011;8048;50.644;6.184;2023-04-03T03:46:32;6.93;;;4.90;;
15899;SDS011;8048;50.644;6.184;2023-04-03T03:48:58;5.50;;;4.37;;
15899;SDS011;8048;50.644;6.184;2023-04-03T03:51:24;5.70;;;4.80;;
15899;SDS011;8048;50.644;6.184;2023-04-03T03:53:50;4.17;;;3.97;;
15899;SDS011;8048;50.644;6.184;2023-04-03T03:56:15;5.40;;;3.83;;
15899;SDS011;8048;50.644;6.184;2023-04-03T03:58:41;8.77;;;4.97;;
15899;SDS011;8048;50.644;6.184;2023-04-03T04:01:07;4.70;;;4.20;;
15899;SDS011;8048;50.644;6.184;2023-04-03T04:03:32;8.97;;;7.07;;
15899;SDS011;8048;50.644;6.184;2023-04-03T04:05:58;5.00;;;4.17;;
15899;SDS011;8048;50.644;6.184;2023-04-03T04:08:24;6.70;;;5.57;;
15899;SDS011;8048;50.644;6.184;2023-04-03T04:10:49;6.13;;;5.37;;
15899;SDS011;8048;50.644;6.184;2023-04-03T04:13:15;7.30;;;5.43;;
15899;SDS011;8048;50.644;6.184;2023-04-03T04:15:41;5.07;;;4.57;;
15899;SDS011;8048;50.644;6.184;2023-04-03T04:18:07;5.00;;;4.23;;
15899;SDS011;8048;50.644;6.184;2023-04-03T04:20:33;3.50;;;3.27;;
15899;SDS011;8048;50.644;6.184;2023-04-03T04:22:59;4.20;;;3.90;;
15899;SDS011;8048;50.644;6.184;2023-04-03T04:25:24;5.87;;;5.17;;
15899;SDS011;8048;50.644;6.184;2023-04-03T04:27:50;4.30;;;3.43;;
15899;SDS011;8048;50.644;6.184;2023-04-03T04:30:16;4.60;;;4.20;;
15899;SDS011;8048;50.644;6.184;2023-04-03T04:32:41;3.13;;;2.83;;
15899;SDS011;8048;50.644;6.184;2023-04-03T04:35:07;3.10;;;2.90;;
15899;SDS011;8048;50.644;6.184;2023-04-03T04:37:33;2.47;;;2.27;;
15899;SDS011;8048;50.644;6.184;2023-04-03T04:39:58;4.07;;;2.70;;
15899;SDS011;8048;50.644;6.184;2023-04-03T04:42:24;3.53;;;3.23;;
15899;SDS011;8048;50.644;6.184;2023-04-03T04:44:49;2.80;;;2.60;;
15899;SDS011;8048;50.644;6.184;2023-04-03T04:47:15;2.20;;;2.10;;
15899;SDS011;8048;50.644;6.184;2023-04-03T04:49:41;3.33;;;3.07;;
15899;SDS011;8048;50.644;6.184;2023-04-03T04:52:06;2.20;;;2.10;;
15899;SDS011;8048;50.644;6.184;2023-04-03T04:54:32;4.63;;;3.40;;
15899;SDS011;8048;50.644;6.184;2023-04-03T04:56:58;4.20;;;3.00;;
15899;SDS011;8048;50.644;6.184;2023-04-03T04:59:23;2.03;;;1.93;;
15899;SDS011;8048;50.644;6.184;2023-04-03T05:01:49;3.20;;;2.90;;
15899;SDS011;8048;50.644;6.184;2023-04-03T05:04:15;2.33;;;2.23;;
15899;SDS011;8048;50.644;6.184;2023-04-03T05:06:40;3.60;;;3.30;;
15899;SDS011;8048;50.644;6.184;2023-04-03T05:09:06;3.57;;;3.27;;
15899;SDS011;8048;50.644;6.184;2023-04-03T05:11:32;3.03;;;2.80;;
15899;SDS011;8048;50.644;6.184;2023-04-03T05:13:57;4.80;;;2.67;;
15899;SDS011;8048;50.644;6.184;2023-04-03T05:16:23;3.50;;;3.20;;
15899;SDS011;8048;50.644;6.184;2023-04-03T05:18:49;3.80;;;3.50;;
15899;SDS011;8048;50.644;6.184;2023-04-03T05:21:14;4.23;;;3.37;;
15899;SDS011;8048;50.644;6.184;2023-04-03T05:23:40;2.97;;;2.77;;
15899;SDS011;8048;50.644;6.184;2023-04-03T05:26:06;2.70;;;2.50;;
15899;SDS011;8048;50.644;6.184;2023-04-03T05:28:31;4.43;;;4.03;;
15899;SDS011;8048;50.644;6.184;2023-04-03T05:30:57;3.37;;;3.07;;
15899;SDS011;8048;50.644;6.184;2023-04-03T05:33:24;3.10;;;2.80;;
15899;SDS011;8048;50.644;6.184;2023-04-03T05:35:51;2.97;;;2.80;;
15899;SDS011;8048;50.644;6.184;2023-04-03T05:38:17;3.47;;;3.27;;
15899;SDS011;8048;50.644;6.184;2023-04-03T05:40:42;3.57;;;3.37;;
15899;SDS011;8048;50.644;6.184;2023-04-03T05:43:08;3.37;;;3.07;;
15899;SDS011;8048;50.644;6.184;2023-04-03T05:45:33;4.00;;;3.60;;
15899;SDS011;8048;50.644;6.184;2023-04-03T05:47:59;3.00;;;2.80;;
15899;SDS011;8048;50.644;6.184;2023-04-03T05:50:25;2.93;;;2.73;;
15899;SDS011;8048;50.644;6.184;2023-04-03T05:52:50;3.90;;;3.03;;
15899;SDS011;8048;50.644;6.184;2023-04-03T05:55:20;2.92;;;2.72;;
15899;SDS011;8048;50.644;6.184;2023-04-03T05:57:45;3.67;;;3.37;;
15899;SDS011;8048;50.644;6.184;2023-04-03T06:00:12;3.77;;;3.57;;
15899;SDS011;8048;50.644;6.184;2023-04-03T06:02:40;4.43;;;4.13;;
15899;SDS011;8048;50.644;6.184;2023-04-03T06:05:06;4.32;;;4.10;;
15899;SDS011;8048;50.644;6.184;2023-04-03T06:07:33;5.23;;;4.20;;
15899;SDS011;8048;50.644;6.184;2023-04-03T06:09:58;5.17;;;4.77;;
15899;SDS011;8048;50.644;6.184;2023-04-03T06:12:25;5.83;;;5.43;;
15899;SDS011;8048;50.644;6.184;2023-04-03T06:14:50;4.77;;;4.00;;
15899;SDS011;8048;50.644;6.184;2023-04-03T06:17:16;5.23;;;4.80;;
15899;SDS011;8048;50.644;6.184;2023-04-03T06:19:43;6.80;;;4.40;;
15899;SDS011;8048;50.644;6.184;2023-04-03T06:22:09;4.30;;;3.90;;
15899;SDS011;8048;50.644;6.184;2023-04-03T06:24:36;5.67;;;5.17;;
15899;SDS011;8048;50.644;6.184;2023-04-03T06:27:02;4.33;;;4.03;;
15899;SDS011;8048;50.644;6.184;2023-04-03T06:29:27;3.87;;;3.57;;
15899;SDS011;8048;50.644;6.184;2023-04-03T06:31:53;3.57;;;3.30;;
15899;SDS011;8048;50.644;6.184;2023-04-03T06:34:18;5.77;;;3.77;;
15899;SDS011;8048;50.644;6.184;2023-04-03T06:36:45;4.77;;;4.47;;
15899;SDS011;8048;50.644;6.184;2023-04-03T06:39:15;3.93;;;3.63;;
15899;SDS011;8048;50.644;6.184;2023-04-03T06:41:42;4.27;;;3.70;;
15899;SDS011;8048;50.644;6.184;2023-04-03T06:44:08;5.27;;;3.90;;
15899;SDS011;8048;50.644;6.184;2023-04-03T06:46:36;3.20;;;3.00;;
15899;SDS011;8048;50.644;6.184;2023-04-03T06:49:03;3.50;;;3.30;;
15899;SDS011;8048;50.644;6.184;2023-04-03T06:51:29;2.77;;;2.57;;
15899;SDS011;8048;50.644;6.184;2023-04-03T06:53:58;4.30;;;4.00;;
15899;SDS011;8048;50.644;6.184;2023-04-03T06:56:24;9.10;;;3.40;;
15899;SDS011;8048;50.644;6.184;2023-04-03T06:58:51;4.57;;;2.90;;
15899;SDS011;8048;50.644;6.184;2023-04-03T07:01:19;3.43;;;3.23;;
15899;SDS011;8048;50.644;6.184;2023-04-03T07:03:45;4.20;;;3.83;;
15899;SDS011;8048;50.644;6.184;2023-04-03T07:06:14;3.33;;;3.13;;
15899;SDS011;8048;50.644;6.184;2023-04-03T07:08:40;3.60;;;3.07;;
15899;SDS011;8048;50.644;6.184;2023-04-03T07:11:07;3.33;;;3.13;;
15899;SDS011;8048;50.644;6.184;2023-04-03T07:13:33;3.30;;;3.00;;
15899;SDS011;8048;50.644;6.184;2023-04-03T07:16:00;3.03;;;2.83;;
15899;SDS011;8048;50.644;6.184;2023-04-03T07:18:26;2.50;;;2.40;;
15899;SDS011;8048;50.644;6.184;2023-04-03T07:20:51;4.40;;;2.97;;
15899;SDS011;8048;50.644;6.184;2023-04-03T07:23:17;4.80;;;4.20;;
15899;SDS011;8048;50.644;6.184;2023-04-03T07:25:44;6.40;;;3.30;;
15899;SDS011;8048;50.644;6.184;2023-04-03T07:28:11;3.60;;;3.33;;
15899;SDS011;8048;50.644;6.184;2023-04-03T07:33:10;3.53;;;3.33;;
15899;SDS011;8048;50.644;6.184;2023-04-03T07:35:36;3.20;;;3.00;;
15899;SDS011;8048;50.644;6.184;2023-04-03T07:38:02;14.20;;;4.50;;
15899;SDS011;8048;50.644;6.184;2023-04-03T07:40:27;3.17;;;2.87;;
15899;SDS011;8048;50.644;6.184;2023-04-03T07:42:53;3.57;;;3.37;;
15899;SDS011;8048;50.644;6.184;2023-04-03T07:45:19;3.90;;;3.40;;
15899;SDS011;8048;50.644;6.184;2023-04-03T07:47:45;6.50;;;3.00;;
15899;SDS011;8048;50.644;6.184;2023-04-03T07:50:11;3.57;;;3.27;;
15899;SDS011;8048;50.644;6.184;2023-04-03T07:52:36;2.60;;;2.50;;
15899;SDS011;8048;50.644;6.184;2023-04-03T07:55:02;2.80;;;2.60;;
15899;SDS011;8048;50.644;6.184;2023-04-03T07:57:28;5.03;;;2.63;;
15899;SDS011;8048;50.644;6.184;2023-04-03T07:59:53;2.87;;;2.67;;
15899;SDS011;8048;50.644;6.184;2023-04-03T08:02:19;2.60;;;2.50;;
15899;SDS011;8048;50.644;6.184;2023-04-03T08:04:44;3.63;;;3.33;;
15899;SDS011;8048;50.644;6.184;2023-04-03T08:07:10;2.53;;;2.40;;
15899;SDS011;8048;50.644;6.184;2023-04-03T08:09:36;3.20;;;2.87;;
15899;SDS011;8048;50.644;6.184;2023-04-03T08:12:01;3.50;;;3.03;;
15899;SDS011;8048;50.644;6.184;2023-04-03T08:14:27;3.10;;;3.00;;
15899;SDS011;8048;50.644;6.184;2023-04-03T08:16:54;2.70;;;2.50;;
15899;SDS011;8048;50.644;6.184;2023-04-03T08:19:21;3.00;;;2.90;;
15899;SDS011;8048;50.644;6.184;2023-04-03T08:21:47;2.87;;;2.67;;
15899;SDS011;8048;50.644;6.184;2023-04-03T08:24:12;3.00;;;2.80;;
15899;SDS011;8048;50.644;6.184;2023-04-03T08:26:38;2.10;;;2.00;;
15899;SDS011;8048;50.644;6.184;2023-04-03T08:29:03;2.37;;;2.27;;
15899;SDS011;8048;50.644;6.184;2023-04-03T08:31:29;3.10;;;2.80;;
15899;SDS011;8048;50.644;6.184;2023-04-03T08:33:56;5.43;;;2.50;;
15899;SDS011;8048;50.644;6.184;2023-04-03T08:36:23;3.60;;;3.30;;
15899;SDS011;8048;50.644;6.184;2023-04-03T08:38:53;4.00;;;2.57;;
15899;SDS011;8048;50.644;6.184;2023-04-03T08:41:31;2.20;;;2.10;;
15899;SDS011;8048;50.644;6.184;2023-04-03T08:47:18;5.50;;;2.80;;
15899;SDS011;8048;50.644;6.184;2023-04-03T08:52:04;3.07;;;2.87;;
15899;SDS011;8048;50.644;6.184;2023-04-03T08:54:35;3.73;;;3.43;;
15899;SDS011;8048;50.644;6.184;2023-04-03T08:57:15;2.10;;;2.00;;
15899;SDS011;8048;50.644;6.184;2023-04-03T08:59:42;4.03;;;2.47;;
15899;SDS011;8048;50.644;6.184;2023-04-03T09:02:51;3.10;;;2.80;;
15899;SDS011;8048;50.644;6.184;2023-04-03T09:05:16;2.23;;;2.10;;
15899;SDS011;8048;50.644;6.184;2023-04-03T09:08:27;2.90;;;2.70;;
15899;SDS011;8048;50.644;6.184;2023-04-03T09:10:38;4.23;;;2.53;;
15899;SDS011;8048;50.644;6.184;2023-04-03T09:13:07;3.00;;;2.90;;
15899;SDS011;8048;50.644;6.184;2023-04-03T09:15:45;2.47;;;2.37;;
15899;SDS011;8048;50.644;6.184;2023-04-03T09:18:19;3.53;;;3.23;;
15899;SDS011;8048;50.644;6.184;2023-04-03T09:20:51;2.60;;;2.50;;
15899;SDS011;8048;50.644;6.184;2023-04-03T09:23:47;3.13;;;2.70;;
15899;SDS011;8048;50.644;6.184;2023-04-03T09:29:32;3.50;;;3.30;;
15899;SDS011;8048;50.644;6.184;2023-04-03T09:32:11;2.83;;;2.63;;
15899;SDS011;8048;50.644;6.184;2023-04-03T09:34:47;3.17;;;2.40;;
15899;SDS011;8048;50.644;6.184;2023-04-03T09:37:33;2.73;;;2.53;;
15899;SDS011;8048;50.644;6.184;2023-04-03T09:40:01;2.60;;;2.40;;
15899;SDS011;8048;50.644;6.184;2023-04-03T09:42:29;3.83;;;2.93;;
15899;SDS011;8048;50.644;6.184;2023-04-03T09:44:57;2.43;;;2.33;;
15899;SDS011;8048;50.644;6.184;2023-04-03T09:47:27;2.60;;;2.30;;
15899;SDS011;8048;50.644;6.184;2023-04-03T09:50:41;2.80;;;2.60;;
15899;SDS011;8048;50.644;6.184;2023-04-03T09:52:46;2.50;;;2.30;;
15899;SDS011;8048;50.644;6.184;2023-04-03T09:57:40;3.17;;;2.97;;
15899;SDS011;8048;50.644;6.184;2023-04-03T10:00:06;4.67;;;2.77;;
15899;SDS011;8048;50.644;6.184;2023-04-03T10:02:44;2.90;;;2.70;;
15899;SDS011;8048;50.644;6.184;2023-04-03T10:05:34;3.80;;;3.50;;
15899;SDS011;8048;50.644;6.184;2023-04-03T10:08:08;3.37;;;2.87;;
15899;SDS011;8048;50.644;6.184;2023-04-03T10:11:04;4.33;;;2.47;;
15899;SDS011;8048;50.644;6.184;2023-04-03T10:13:34;2.70;;;2.50;;
15899;SDS011;8048;50.644;6.184;2023-04-03T10:16:07;2.60;;;2.50;;
15899;SDS011;8048;50.644;6.184;2023-04-03T10:18:39;2.60;;;2.50;;
15899;SDS011;8048;50.644;6.184;2023-04-03T10:21:28;4.90;;;2.53;;
15899;SDS011;8048;50.644;6.184;2023-04-03T10:27:06;3.00;;;2.40;;
15899;SDS011;8048;50.644;6.184;2023-04-03T10:35:18;2.70;;;2.53;;
15899;SDS011;8048;50.644;6.184;2023-04-03T10:37:53;2.27;;;2.17;;
15899;SDS011;8048;50.644;6.184;2023-04-03T10:43:29;4.60;;;2.50;;
15899;SDS011;8048;50.644;6.184;2023-04-03T10:46:26;2.20;;;2.10;;
15899;SDS011;8048;50.644;6.184;2023-04-03T10:49:51;2.90;;;2.60;;
15899;SDS011;8048;50.644;6.184;2023-04-03T10:54:41;2.53;;;1.90;;
15899;SDS011;8048;50.644;6.184;2023-04-03T10:57:15;2.97;;;2.20;;
15899;SDS011;8048;50.644;6.184;2023-04-03T10:59:49;2.70;;;2.50;;
15899;SDS011;8048;50.644;6.184;2023-04-03T11:04:54;8.37;;;2.53;;
15899;SDS011;8048;50.644;6.184;2023-04-03T11:07:26;3.27;;;2.00;;
15899;SDS011;8048;50.644;6.184;2023-04-03T11:09:56;3.80;;;2.50;;
15899;SDS011;8048;50.644;6.184;2023-04-03T11:12:28;2.30;;;2.03;;
15899;SDS011;8048;50.644;6.184;2023-04-03T11:15:05;2.43;;;2.33;;
15899;SDS011;8048;50.644;6.184;2023-04-03T11:17:38;2.50;;;2.07;;
15899;SDS011;8048;50.644;6.184;2023-04-03T11:20:19;2.63;;;2.53;;
15899;SDS011;8048;50.644;6.184;2023-04-03T11:23:00;2.10;;;2.00;;
15899;SDS011;8048;50.644;6.184;2023-04-03T11:25:34;2.23;;;2.13;;
15899;SDS011;8048;50.644;6.184;2023-04-03T11:28:03;2.67;;;2.50;;
15899;SDS011;8048;50.644;6.184;2023-04-03T11:30:34;2.07;;;1.97;;
15899;SDS011;8048;50.644;6.184;2023-04-03T11:33:51;3.03;;;2.10;;
15899;SDS011;8048;50.644;6.184;2023-04-03T11:36:39;3.53;;;2.20;;
15899;SDS011;8048;50.644;6.184;2023-04-03T11:39:20;2.20;;;2.10;;
15899;SDS011;8048;50.644;6.184;2023-04-03T11:41:49;3.00;;;2.37;;
15899;SDS011;8048;50.644;6.184;2023-04-03T11:44:29;2.07;;;1.97;;
15899;SDS011;8048;50.644;6.184;2023-04-03T11:46:58;2.30;;;2.10;;
15899;SDS011;8048;50.644;6.184;2023-04-03T11:52:53;2.00;;;1.90;;
15899;SDS011;8048;50.644;6.184;2023-04-03T11:55:35;2.50;;;2.30;;
15899;SDS011;8048;50.644;6.184;2023-04-03T12:35:10;2.10;;;2.00;;
15899;SDS011;8048;50.644;6.184;2023-04-03T12:38:15;2.70;;;2.50;;
15899;SDS011;8048;50.644;6.184;2023-04-03T12:47:04;2.13;;;2.03;;
15899;SDS011;8048;50.644;6.184;2023-04-03T12:49:53;2.60;;;2.17;;
15899;SDS011;8048;50.644;6.184;2023-04-03T12:52:39;2.93;;;2.60;;
15899;SDS011;8048;50.644;6.184;2023-04-03T12:55:14;2.00;;;1.90;;
15899;SDS011;8048;50.644;6.184;2023-04-03T12:57:45;2.30;;;2.20;;
15899;SDS011;8048;50.644;6.184;2023-04-03T13:03:01;3.97;;;2.90;;
15899;SDS011;8048;50.644;6.184;2023-04-03T13:05:27;2.17;;;2.07;;
15899;SDS011;8048;50.644;6.184;2023-04-03T13:07:58;2.00;;;1.90;;
15899;SDS011;8048;50.644;6.184;2023-04-03T13:10:25;1.80;;;1.70;;
15899;SDS011;8048;50.644;6.184;2023-04-03T13:15:24;2.10;;;2.00;;
15899;SDS011;8048;50.644;6.184;2023-04-03T13:17:55;2.30;;;2.10;;
15899;SDS011;8048;50.644;6.184;2023-04-03T13:22:59;2.47;;;2.27;;
15899;SDS011;8048;50.644;6.184;2023-04-03T13:25:37;2.50;;;2.30;;
15899;SDS011;8048;50.644;6.184;2023-04-03T13:28:09;2.73;;;2.23;;
15899;SDS011;8048;50.644;6.184;2023-04-03T13:30:39;2.80;;;2.43;;
15899;SDS011;8048;50.644;6.184;2023-04-03T13:33:06;2.33;;;2.23;;
15899;SDS011;8048;50.644;6.184;2023-04-03T13:35:45;4.20;;;3.80;;
15899;SDS011;8048;50.644;6.184;2023-04-03T13:40:50;2.27;;;2.10;;
15899;SDS011;8048;50.644;6.184;2023-04-03T13:43:19;2.20;;;1.63;;
15899;SDS011;8048;50.644;6.184;2023-04-03T13:45:59;2.20;;;2.00;;
15899;SDS011;8048;50.644;6.184;2023-04-03T13:48:52;2.30;;;2.10;;
15899;SDS011;8048;50.644;6.184;2023-04-03T13:51:23;2.50;;;2.30;;
15899;SDS011;8048;50.644;6.184;2023-04-03T13:56:34;5.47;;;2.07;;
15899;SDS011;8048;50.644;6.184;2023-04-03T13:59:05;2.17;;;2.07;;
15899;SDS011;8048;50.644;6.184;2023-04-03T14:04:12;3.90;;;2.37;;
15899;SDS011;8048;50.644;6.184;2023-04-03T14:06:43;2.00;;;1.80;;
15899;SDS011;8048;50.644;6.184;2023-04-03T14:09:09;2.40;;;2.30;;
15899;SDS011;8048;50.644;6.184;2023-04-03T14:11:35;1.97;;;1.87;;
15899;SDS011;8048;50.644;6.184;2023-04-03T14:14:02;2.60;;;2.40;;
15899;SDS011;8048;50.644;6.184;2023-04-03T14:16:37;2.70;;;2.23;;
15899;SDS011;8048;50.644;6.184;2023-04-03T14:19:04;2.83;;;2.23;;
15899;SDS011;8048;50.644;6.184;2023-04-03T14:21:30;2.10;;;2.00;;
15899;SDS011;8048;50.644;6.184;2023-04-03T14:23:55;2.13;;;2.00;;
15899;SDS011;8048;50.644;6.184;2023-04-03T14:26:23;2.67;;;2.33;;
15899;SDS011;8048;50.644;6.184;2023-04-03T14:28:51;3.10;;;2.50;;
15899;SDS011;8048;50.644;6.184;2023-04-03T14:31:19;2.00;;;1.90;;
15899;SDS011;8048;50.644;6.184;2023-04-03T14:33:46;2.37;;;2.17;;
15899;SDS011;8048;50.644;6.184;2023-04-03T14:38:42;2.13;;;2.03;;
15899;SDS011;8048;50.644;6.184;2023-04-03T14:41:10;2.60;;;1.90;;
15899;SDS011;8048;50.644;6.184;2023-04-03T14:43:38;2.50;;;2.40;;
15899;SDS011;8048;50.644;6.184;2023-04-03T14:46:04;3.30;;;2.10;;
15899;SDS011;8048;50.644;6.184;2023-04-03T14:48:30;3.33;;;1.70;;
15899;SDS011;8048;50.644;6.184;2023-04-03T14:50:56;2.20;;;2.10;;
15899;SDS011;8048;50.644;6.184;2023-04-03T14:53:22;4.90;;;2.40;;
15899;SDS011;8048;50.644;6.184;2023-04-03T14:55:51;2.93;;;2.30;;
15899;SDS011;8048;50.644;6.184;2023-04-03T14:58:18;2.53;;;2.33;;
15899;SDS011;8048;50.644;6.184;2023-04-03T15:00:45;2.80;;;2.10;;
15899;SDS011;8048;50.644;6.184;2023-04-03T15:03:14;2.80;;;2.10;;
15899;SDS011;8048;50.644;6.184;2023-04-03T15:05:45;2.07;;;1.90;;
15899;SDS011;8048;50.644;6.184;2023-04-03T15:08:21;2.50;;;2.00;;
15899;SDS011;8048;50.644;6.184;2023-04-03T15:10:49;2.30;;;2.20;;
15899;SDS011;8048;50.644;6.184;2023-04-03T15:13:17;3.80;;;2.33;;
15899;SDS011;8048;50.644;6.184;2023-04-03T15:15:44;3.00;;;2.50;;
15899;SDS011;8048;50.644;6.184;2023-04-03T15:18:14;2.30;;;2.00;;
15899;SDS011;8048;50.644;6.184;2023-04-03T15:20:45;2.20;;;2.10;;
15899;SDS011;8048;50.644;6.184;2023-04-03T15:23:15;2.47;;;2.27;;
15899;SDS011;8048;50.644;6.184;2023-04-03T15:25:42;2.10;;;2.00;;
15899;SDS011;8048;50.644;6.184;2023-04-03T15:28:21;3.20;;;3.00;;
15899;SDS011;8048;50.644;6.184;2023-04-03T15:30:51;2.50;;;2.30;;
15899;SDS011;8048;50.644;6.184;2023-04-03T15:33:17;2.80;;;2.60;;
15899;SDS011;8048;50.644;6.184;2023-04-03T15:35:43;2.10;;;2.00;;
15899;SDS011;8048;50.644;6.184;2023-04-03T15:38:08;1.60;;;1.60;;
15899;SDS011;8048;50.644;6.184;2023-04-03T15:40:34;2.43;;;2.30;;
15899;SDS011;8048;50.644;6.184;2023-04-03T15:43:00;1.77;;;1.67;;
15899;SDS011;8048;50.644;6.184;2023-04-03T15:45:28;1.90;;;1.80;;
15899;SDS011;8048;50.644;6.184;2023-04-03T15:47:54;1.80;;;1.70;;
15899;SDS011;8048;50.644;6.184;2023-04-03T15:50:20;2.13;;;2.00;;
15899;SDS011;8048;50.644;6.184;2023-04-03T15:52:48;2.43;;;2.23;;
15899;SDS011;8048;50.644;6.184;2023-04-03T15:55:19;2.20;;;2.10;;
15899;SDS011;8048;50.644;6.184;2023-04-03T15:57:52;2.40;;;2.13;;
15899;SDS011;8048;50.644;6.184;2023-04-03T16:00:18;2.00;;;1.93;;
15899;SDS011;8048;50.644;6.184;2023-04-03T16:02:45;2.70;;;2.50;;
15899;SDS011;8048;50.644;6.184;2023-04-03T16:05:12;2.00;;;1.77;;
15899;SDS011;8048;50.644;6.184;2023-04-03T16:07:40;2.00;;;1.90;;
15899;SDS011;8048;50.644;6.184;2023-04-03T16:10:07;3.40;;;2.57;;
15899;SDS011;8048;50.644;6.184;2023-04-03T16:12:33;2.33;;;2.23;;
15899;SDS011;8048;50.644;6.184;2023-04-03T16:14:59;3.10;;;2.90;;
15899;SDS011;8048;50.644;6.184;2023-04-03T16:17:26;2.13;;;2.03;;
15899;SDS011;8048;50.644;6.184;2023-04-03T16:19:52;6.20;;;2.20;;
15899;SDS011;8048;50.644;6.184;2023-04-03T16:22:19;2.03;;;1.93;;
15899;SDS011;8048;50.644;6.184;2023-04-03T16:24:45;2.03;;;1.90;;
15899;SDS011;8048;50.644;6.184;2023-04-03T16:27:10;2.33;;;2.23;;
15899;SDS011;8048;50.644;6.184;2023-04-03T16:29:36;3.60;;;2.27;;
15899;SDS011;8048;50.644;6.184;2023-04-03T16:32:01;2.40;;;2.20;;
15899;SDS011;8048;50.644;6.184;2023-04-03T16:34:27;1.83;;;1.67;;
15899;SDS011;8048;50.644;6.184;2023-04-03T16:36:55;2.40;;;2.00;;
15899;SDS011;8048;50.644;6.184;2023-04-03T16:39:20;2.60;;;2.13;;
15899;SDS011;8048;50.644;6.184;2023-04-03T16:41:46;2.00;;;1.90;;
15899;SDS011;8048;50.644;6.184;2023-04-03T16:44:12;1.93;;;1.80;;
15899;SDS011;8048;50.644;6.184;2023-04-03T16:46:38;3.63;;;2.43;;
15899;SDS011;8048;50.644;6.184;2023-04-03T16:49:04;2.43;;;2.10;;
15899;SDS011;8048;50.644;6.184;2023-04-03T16:51:29;3.90;;;2.70;;